Time;durP1;ratioP1;P1;durP2;ratioP2;P2;SDS_P1;SDS_P2;PMS_P1;PMS_P2;Temp;Humidity;BMP_temperature;BMP_pressure;BME280_temperature;BME280_humidity;BME280_pressure;Samples;Min_cycle;Max_cycle;Signal;HPM_P1;HPM_P2
2022/01/06 00:00:40;;;;;;;10.80;3.60;;;;;;;;;;5116363;28;20285;-68
2022/01/06 00:03:08;;;;;;;17.35;3.85;;;;;;;;;;5116636;28;20237;-68
2022/01/06 00:05:36;;;;;;;8.32;3.63;;;;;;;;;;5116355;28;20281;-68
2022/01/06 00:08:03;;;;;;;20.98;2.42;;;;;;;;;;5116613;28;20273;-68
2022/01/06 00:10:31;;;;;;;13.35;3.03;;;;;;;;;;5116068;28;20192;-68
2022/01/06 00:13:10;;;;;;;16.15;3.05;;;;;;;;;;5116432;28;20558;-68
2022/01/06 00:15:44;;;;;;;8.82;3.17;;;;;;;;;;5116306;28;20650;-68
2022/01/06 00:18:20;;;;;;;15.05;3.58;;;;;;;;;;5116332;28;20185;-68
2022/01/06 00:23:35;;;;;;;16.70;3.05;;;;;;;;;;5115987;28;20181;-68
2022/01/06 00:26:03;;;;;;;10.23;4.28;;;;;;;;;;5115665;28;20678;-68
2022/01/06 00:28:30;;;;;;;5.75;2.00;;;;;;;;;;5115661;28;20594;-68
2022/01/06 00:30:58;;;;;;;13.43;3.75;;;;;;;;;;5115919;28;20189;-67
2022/01/06 00:33:29;;;;;;;11.05;3.22;;;;;;;;;;5115317;28;20191;-68
2022/01/06 00:35:56;;;;;;;12.23;2.70;;;;;;;;;;5115531;28;20175;-67
2022/01/06 00:38:25;;;;;;;7.68;2.97;;;;;;;;;;5115265;28;20233;-68
2022/01/06 00:40:53;;;;;;;15.95;3.20;;;;;;;;;;5115475;28;20190;-70
2022/01/06 00:43:20;;;;;;;4.30;2.00;;;;;;;;;;5115635;28;20186;-68
2022/01/06 00:45:47;;;;;;;10.05;2.88;;;;;;;;;;5115591;28;20194;-68
2022/01/06 00:48:15;;;;;;;9.35;2.83;;;;;;;;;;5115270;28;20287;-68
2022/01/06 00:50:44;;;;;;;12.65;2.50;;;;;;;;;;5115415;28;20244;-68
2022/01/06 00:53:11;;;;;;;14.48;2.92;;;;;;;;;;5115946;28;20229;-68
2022/01/06 00:55:39;;;;;;;10.57;2.70;;;;;;;;;;5115017;28;20397;-69
2022/01/06 00:58:07;;;;;;;18.40;4.25;;;;;;;;;;5114977;28;20737;-71
2022/01/06 01:00:38;;;;;;;10.43;2.00;;;;;;;;;;5115249;28;20222;-68
2022/01/06 01:03:06;;;;;;;18.08;3.90;;;;;;;;;;5115206;28;20194;-68
2022/01/06 01:05:33;;;;;;;7.32;3.30;;;;;;;;;;5116007;28;20695;-68
2022/01/06 01:08:02;;;;;;;12.85;3.05;;;;;;;;;;5115146;28;20615;-68
2022/01/06 01:10:30;;;;;;;6.05;2.88;;;;;;;;;;5115425;28;20273;-68
2022/01/06 01:12:57;;;;;;;8.73;2.70;;;;;;;;;;5114691;28;20667;-68
2022/01/06 01:15:26;;;;;;;21.08;3.30;;;;;;;;;;5114897;28;20555;-68
2022/01/06 01:17:54;;;;;;;10.02;2.83;;;;;;;;;;5115543;28;20191;-68
2022/01/06 01:20:22;;;;;;;11.80;3.22;;;;;;;;;;5115343;28;20537;-68
2022/01/06 01:22:49;;;;;;;25.05;3.80;;;;;;;;;;5114515;28;20225;-68
2022/01/06 01:25:18;;;;;;;15.13;3.22;;;;;;;;;;5115221;28;20619;-68
2022/01/06 01:27:45;;;;;;;8.13;2.65;;;;;;;;;;5114823;28;20242;-69
2022/01/06 01:30:14;;;;;;;7.10;2.50;;;;;;;;;;5114406;28;20286;-68
2022/01/06 01:32:46;;;;;;;5.47;2.38;;;;;;;;;;5114578;28;20201;-68
2022/01/06 01:35:14;;;;;;;14.35;5.90;;;;;;;;;;5115054;28;20255;-68
2022/01/06 01:37:41;;;;;;;12.60;3.03;;;;;;;;;;5114435;28;20278;-68
2022/01/06 01:40:10;;;;;;;9.55;3.33;;;;;;;;;;5114662;28;20607;-68
2022/01/06 01:42:38;;;;;;;13.75;3.38;;;;;;;;;;5114234;28;20224;-68
2022/01/06 01:45:07;;;;;;;12.10;2.85;;;;;;;;;;5114491;28;20224;-67
2022/01/06 01:47:40;;;;;;;7.68;2.88;;;;;;;;;;5114797;28;20227;-68
2022/01/06 01:50:13;;;;;;;11.95;2.70;;;;;;;;;;5114729;28;20177;-67
2022/01/06 01:52:40;;;;;;;12.80;3.60;;;;;;;;;;5114539;28;20265;-68
2022/01/06 01:55:08;;;;;;;8.88;3.08;;;;;;;;;;5114162;28;20304;-68
2022/01/06 01:57:36;;;;;;;10.65;2.35;;;;;;;;;;5114244;28;20277;-68
2022/01/06 02:00:06;;;;;;;10.35;2.90;;;;;;;;;;5114289;28;20280;-69
2022/01/06 02:02:33;;;;;;;15.48;3.58;;;;;;;;;;5114253;28;20282;-69
2022/01/06 02:05:01;;;;;;;9.30;2.90;;;;;;;;;;5113952;28;20265;-68
2022/01/06 02:07:28;;;;;;;19.65;4.25;;;;;;;;;;5114186;28;20275;-68
2022/01/06 02:09:55;;;;;;;6.57;2.55;;;;;;;;;;5113872;28;20280;-69
2022/01/06 02:12:23;;;;;;;10.15;3.50;;;;;;;;;;5114879;28;20279;-68
2022/01/06 02:14:51;;;;;;;11.50;2.83;;;;;;;;;;5114924;28;20612;-69
2022/01/06 02:17:19;;;;;;;7.85;2.47;;;;;;;;;;5115509;28;20634;-70
2022/01/06 02:19:55;;;;;;;9.52;2.35;;;;;;;;;;5115871;28;20248;-69
2022/01/06 02:22:22;;;;;;;23.95;3.60;;;;;;;;;;5115289;28;20199;-69
2022/01/06 02:24:50;;;;;;;8.75;2.60;;;;;;;;;;5114657;28;20709;-69
2022/01/06 02:27:19;;;;;;;6.38;2.30;;;;;;;;;;5115562;28;20253;-69
2022/01/06 02:29:47;;;;;;;16.33;2.90;;;;;;;;;;5113882;28;20198;-69
2022/01/06 02:32:14;;;;;;;13.63;3.38;;;;;;;;;;5113590;28;20221;-69
2022/01/06 02:34:42;;;;;;;11.05;2.75;;;;;;;;;;5114024;28;20212;-69
2022/01/06 02:37:11;;;;;;;8.73;3.15;;;;;;;;;;5113727;28;20660;-68
2022/01/06 02:39:38;;;;;;;18.92;3.08;;;;;;;;;;5113877;28;20277;-69
2022/01/06 02:42:06;;;;;;;6.85;2.60;;;;;;;;;;5113463;28;20280;-70
2022/01/06 02:44:34;;;;;;;7.95;2.65;;;;;;;;;;5113582;28;20229;-69
2022/01/06 02:47:01;;;;;;;11.07;2.70;;;;;;;;;;5113632;28;20196;-69
2022/01/06 02:49:29;;;;;;;9.07;2.42;;;;;;;;;;5114235;28;20228;-69
2022/01/06 02:51:56;;;;;;;6.40;2.10;;;;;;;;;;5114139;28;20238;-68
2022/01/06 02:54:24;;;;;;;4.72;2.10;;;;;;;;;;5113955;28;20189;-68
2022/01/06 02:56:52;;;;;;;6.20;2.22;;;;;;;;;;5113975;28;20279;-68
2022/01/06 02:59:19;;;;;;;8.43;2.45;;;;;;;;;;5114318;28;20193;-69
2022/01/06 03:01:47;;;;;;;9.32;2.72;;;;;;;;;;5114007;28;20224;-69
2022/01/06 03:04:14;;;;;;;9.70;3.55;;;;;;;;;;5116308;28;20343;-68
2022/01/06 03:06:41;;;;;;;11.27;2.20;;;;;;;;;;5117364;28;20280;-69
2022/01/06 03:09:09;;;;;;;11.57;2.65;;;;;;;;;;5118551;28;20734;-69
2022/01/06 03:11:42;;;;;;;18.17;5.72;;;;;;;;;;5119009;28;20195;-68
2022/01/06 03:14:09;;;;;;;11.07;2.22;;;;;;;;;;5117689;28;20209;-68
2022/01/06 03:16:36;;;;;;;18.98;3.15;;;;;;;;;;5117586;28;20226;-69
2022/01/06 03:19:04;;;;;;;11.45;2.78;;;;;;;;;;5117203;28;20275;-68
2022/01/06 03:21:31;;;;;;;11.43;2.65;;;;;;;;;;5117229;28;20225;-69
2022/01/06 03:23:58;;;;;;;6.60;2.55;;;;;;;;;;5119323;28;20185;-69
2022/01/06 03:26:25;;;;;;;8.25;3.28;;;;;;;;;;5119063;28;20221;-68
2022/01/06 03:28:54;;;;;;;10.68;3.20;;;;;;;;;;5120452;28;20246;-68
2022/01/06 03:31:21;;;;;;;6.25;2.33;;;;;;;;;;5117316;28;20221;-69
2022/01/06 03:33:48;;;;;;;9.05;2.42;;;;;;;;;;5116719;28;20224;-68
2022/01/06 03:36:16;;;;;;;12.73;2.60;;;;;;;;;;5116517;28;20300;-68
2022/01/06 03:38:43;;;;;;;8.02;2.30;;;;;;;;;;5117560;28;20218;-68
2022/01/06 03:41:10;;;;;;;9.18;2.20;;;;;;;;;;5116638;28;20234;-68
2022/01/06 03:43:38;;;;;;;7.88;2.58;;;;;;;;;;5116757;28;20283;-69
2022/01/06 03:46:06;;;;;;;15.48;3.08;;;;;;;;;;5116736;28;20196;-68
2022/01/06 03:48:33;;;;;;;11.85;2.92;;;;;;;;;;5117278;28;20220;-68
2022/01/06 03:51:01;;;;;;;13.55;2.65;;;;;;;;;;5117051;28;20272;-69
2022/01/06 03:53:28;;;;;;;14.38;2.95;;;;;;;;;;5116260;28;20237;-68
2022/01/06 03:55:55;;;;;;;12.65;2.85;;;;;;;;;;5116418;28;20209;-68
2022/01/06 03:58:22;;;;;;;9.27;2.60;;;;;;;;;;5116177;28;20701;-67
2022/01/06 04:00:49;;;;;;;6.55;3.00;;;;;;;;;;5116065;28;20275;-68
2022/01/06 04:03:18;;;;;;;11.25;2.88;;;;;;;;;;5116252;28;20254;-68
2022/01/06 04:05:45;;;;;;;10.05;2.78;;;;;;;;;;5116041;28;20288;-68
2022/01/06 04:08:13;;;;;;;16.35;3.55;;;;;;;;;;5116264;28;20603;-68
2022/01/06 04:10:40;;;;;;;16.05;3.63;;;;;;;;;;5116034;28;20736;-68
2022/01/06 04:13:07;;;;;;;14.80;3.47;;;;;;;;;;5115845;28;20233;-68
2022/01/06 04:15:34;;;;;;;9.90;2.83;;;;;;;;;;5115453;28;20252;-68
2022/01/06 04:18:02;;;;;;;8.52;2.40;;;;;;;;;;5116615;28;20284;-67
2022/01/06 04:20:30;;;;;;;16.83;3.25;;;;;;;;;;5115804;28;20418;-67
2022/01/06 04:22:57;;;;;;;3.97;2.65;;;;;;;;;;5116045;28;20272;-68
2022/01/06 04:25:25;;;;;;;17.80;3.92;;;;;;;;;;5115717;28;20289;-68
2022/01/06 04:27:52;;;;;;;14.73;3.22;;;;;;;;;;5116265;28;20236;-69
2022/01/06 04:30:19;;;;;;;4.10;2.42;;;;;;;;;;5116214;28;20223;-69
2022/01/06 04:32:46;;;;;;;13.63;3.38;;;;;;;;;;5115465;28;20194;-68
2022/01/06 04:35:14;;;;;;;8.95;2.40;;;;;;;;;;5115472;28;20211;-68
2022/01/06 04:37:42;;;;;;;19.42;3.85;;;;;;;;;;5116054;28;20279;-68
2022/01/06 04:40:10;;;;;;;15.63;3.78;;;;;;;;;;5116207;28;20221;-68
2022/01/06 04:42:37;;;;;;;13.48;3.15;;;;;;;;;;5116263;28;20235;-68
2022/01/06 04:45:05;;;;;;;8.55;5.03;;;;;;;;;;5115302;28;20197;-68
2022/01/06 04:47:32;;;;;;;13.93;3.80;;;;;;;;;;5115215;28;20280;-68
2022/01/06 04:50:00;;;;;;;10.50;3.35;;;;;;;;;;5115443;28;20196;-68
2022/01/06 04:52:27;;;;;;;7.47;2.80;;;;;;;;;;5115561;28;20245;-68
2022/01/06 04:54:55;;;;;;;10.90;3.60;;;;;;;;;;5114862;28;20196;-68
2022/01/06 04:57:23;;;;;;;12.82;3.63;;;;;;;;;;5115466;28;20280;-69
2022/01/06 04:59:50;;;;;;;20.05;3.35;;;;;;;;;;5115502;28;20232;-68
2022/01/06 05:02:17;;;;;;;12.52;3.00;;;;;;;;;;5114880;28;20190;-68
2022/01/06 05:04:44;;;;;;;9.15;3.33;;;;;;;;;;5114632;28;20315;-68
2022/01/06 05:07:12;;;;;;;14.98;3.10;;;;;;;;;;5115144;28;20273;-68
2022/01/06 05:09:39;;;;;;;7.82;3.08;;;;;;;;;;5115546;28;20710;-68
2022/01/06 05:12:08;;;;;;;6.75;3.47;;;;;;;;;;5115014;28;20229;-68
2022/01/06 05:14:35;;;;;;;10.13;3.38;;;;;;;;;;5115137;28;20246;-68
2022/01/06 05:17:03;;;;;;;6.07;2.25;;;;;;;;;;5114811;28;20304;-67
2022/01/06 05:19:30;;;;;;;11.45;4.95;;;;;;;;;;5114971;28;20285;-67
2022/01/06 05:21:59;;;;;;;18.40;3.75;;;;;;;;;;5114806;28;20297;-67
2022/01/06 05:24:26;;;;;;;8.85;3.33;;;;;;;;;;5115620;28;20200;-67
2022/01/06 05:26:56;;;;;;;13.20;4.45;;;;;;;;;;5114148;28;20591;-69
2022/01/06 05:29:25;;;;;;;23.52;3.20;;;;;;;;;;5114652;28;20614;-65
2022/01/06 05:31:52;;;;;;;10.40;3.20;;;;;;;;;;5114771;28;20197;-66
2022/01/06 05:34:20;;;;;;;22.25;3.83;;;;;;;;;;5114807;28;20281;-66
2022/01/06 05:36:47;;;;;;;13.90;3.70;;;;;;;;;;5114606;28;20271;-66
2022/01/06 05:39:14;;;;;;;7.38;2.75;;;;;;;;;;5114666;28;20277;-66
2022/01/06 05:41:42;;;;;;;18.65;2.88;;;;;;;;;;5113389;28;20233;-66
2022/01/06 05:44:09;;;;;;;8.30;3.45;;;;;;;;;;5114578;28;20222;-66
2022/01/06 05:46:37;;;;;;;19.35;4.80;;;;;;;;;;5114449;28;20302;-66
2022/01/06 05:49:05;;;;;;;12.75;3.85;;;;;;;;;;5114369;28;20225;-66
2022/01/06 05:51:32;;;;;;;16.33;3.60;;;;;;;;;;5114091;28;20193;-66
2022/01/06 05:53:59;;;;;;;11.10;3.00;;;;;;;;;;5114520;28;20297;-66
2022/01/06 05:56:28;;;;;;;13.35;3.88;;;;;;;;;;5114128;28;20305;-66
2022/01/06 05:58:56;;;;;;;8.68;2.70;;;;;;;;;;5114877;28;20722;-66
2022/01/06 06:01:23;;;;;;;13.68;4.05;;;;;;;;;;5117843;28;20612;-66
2022/01/06 06:03:54;;;;;;;8.73;4.55;;;;;;;;;;5114025;28;20307;-66
2022/01/06 06:06:21;;;;;;;15.63;4.75;;;;;;;;;;5113943;28;20183;-66
2022/01/06 06:08:48;;;;;;;13.07;4.05;;;;;;;;;;5114298;28;20239;-65
2022/01/06 06:11:15;;;;;;;10.90;3.58;;;;;;;;;;5113509;28;20604;-66
2022/01/06 06:13:42;;;;;;;16.02;3.00;;;;;;;;;;5113636;28;20284;-66
2022/01/06 06:16:10;;;;;;;21.35;5.50;;;;;;;;;;5114131;28;20213;-65
2022/01/06 06:18:37;;;;;;;6.45;2.70;;;;;;;;;;5113834;28;20608;-66
2022/01/06 06:21:07;;;;;;;12.27;3.33;;;;;;;;;;5113896;28;20285;-66
2022/01/06 06:23:34;;;;;;;13.73;3.33;;;;;;;;;;5114059;28;20343;-65
2022/01/06 06:26:01;;;;;;;12.70;3.63;;;;;;;;;;5114267;28;20616;-65
2022/01/06 06:28:28;;;;;;;15.70;3.38;;;;;;;;;;5113459;28;20280;-65
2022/01/06 06:30:56;;;;;;;8.70;3.88;;;;;;;;;;5113676;28;20193;-66
2022/01/06 06:33:23;;;;;;;15.30;4.55;;;;;;;;;;5113391;28;20269;-67
2022/01/06 06:35:50;;;;;;;12.23;4.57;;;;;;;;;;5113438;28;20214;-72
2022/01/06 06:38:19;;;;;;;14.27;2.70;;;;;;;;;;5117179;28;20229;-67
2022/01/06 06:40:47;;;;;;;17.40;3.80;;;;;;;;;;5117667;28;20190;-67
2022/01/06 06:43:14;;;;;;;14.88;4.38;;;;;;;;;;5118425;28;20273;-66
2022/01/06 06:45:42;;;;;;;13.15;4.45;;;;;;;;;;5118107;28;20231;-66
2022/01/06 06:48:09;;;;;;;20.63;6.05;;;;;;;;;;5118174;28;20271;-66
2022/01/06 06:50:36;;;;;;;11.60;3.65;;;;;;;;;;5118023;28;20223;-66
2022/01/06 06:53:04;;;;;;;12.20;4.65;;;;;;;;;;5118665;28;20272;-66
2022/01/06 06:55:33;;;;;;;12.68;3.88;;;;;;;;;;5117751;28;20285;-66
2022/01/06 06:58:01;;;;;;;7.97;3.38;;;;;;;;;;5118343;28;20221;-67
2022/01/06 07:00:28;;;;;;;5.22;3.00;;;;;;;;;;5118388;28;20569;-67
2022/01/06 07:02:55;;;;;;;15.82;3.97;;;;;;;;;;5117074;28;20279;-67
2022/01/06 07:05:23;;;;;;;12.65;4.57;;;;;;;;;;5118217;28;20265;-67
2022/01/06 07:07:50;;;;;;;16.92;4.28;;;;;;;;;;5117315;28;20710;-66
2022/01/06 07:10:17;;;;;;;19.00;4.78;;;;;;;;;;5117176;28;20193;-67
2022/01/06 07:12:46;;;;;;;25.00;4.30;;;;;;;;;;5117267;28;20233;-66
2022/01/06 07:15:15;;;;;;;16.77;4.53;;;;;;;;;;5119107;28;20195;-66
2022/01/06 07:17:42;;;;;;;21.52;4.50;;;;;;;;;;5117057;28;20304;-66
2022/01/06 07:20:10;;;;;;;15.68;4.70;;;;;;;;;;5117398;28;20228;-66
2022/01/06 07:22:38;;;;;;;12.10;4.60;;;;;;;;;;5117344;28;20308;-67
2022/01/06 07:25:05;;;;;;;19.35;4.22;;;;;;;;;;5116965;28;20282;-66
2022/01/06 07:27:32;;;;;;;15.05;3.90;;;;;;;;;;5117258;28;20229;-66
2022/01/06 07:30:01;;;;;;;12.02;4.90;;;;;;;;;;5117369;28;20274;-66
2022/01/06 07:32:28;;;;;;;18.40;5.20;;;;;;;;;;5116966;28;20598;-66
2022/01/06 07:34:55;;;;;;;10.63;4.13;;;;;;;;;;5116679;28;20225;-66
2022/01/06 07:37:23;;;;;;;16.23;6.10;;;;;;;;;;5116908;28;20301;-66
2022/01/06 07:39:50;;;;;;;7.43;4.22;;;;;;;;;;5116566;28;20190;-66
2022/01/06 07:42:17;;;;;;;11.98;3.95;;;;;;;;;;5117002;28;20273;-66
2022/01/06 07:44:46;;;;;;;7.88;3.90;;;;;;;;;;5117161;28;20285;-66
2022/01/06 07:47:15;;;;;;;8.88;4.32;;;;;;;;;;5117309;28;20205;-67
2022/01/06 07:49:42;;;;;;;14.13;4.45;;;;;;;;;;5115872;28;20243;-67
2022/01/06 07:52:10;;;;;;;14.45;3.50;;;;;;;;;;5116896;28;20222;-67
2022/01/06 07:54:37;;;;;;;12.32;3.70;;;;;;;;;;5116858;28;20246;-66
2022/01/06 07:57:05;;;;;;;15.35;4.30;;;;;;;;;;5116201;28;20257;-67
2022/01/06 07:59:32;;;;;;;27.85;6.28;;;;;;;;;;5116155;28;20673;-66
2022/01/06 08:01:59;;;;;;;8.32;3.65;;;;;;;;;;5116490;28;20239;-66
2022/01/06 08:04:28;;;;;;;20.95;6.05;;;;;;;;;;5116416;28;20271;-67
2022/01/06 08:06:55;;;;;;;14.60;5.30;;;;;;;;;;5116355;28;20231;-67
2022/01/06 08:09:22;;;;;;;21.38;5.85;;;;;;;;;;5116071;28;20196;-66
2022/01/06 08:11:49;;;;;;;13.52;5.43;;;;;;;;;;5117039;28;20228;-66
2022/01/06 08:14:17;;;;;;;18.45;5.65;;;;;;;;;;5115888;28;20604;-67
2022/01/06 08:16:44;;;;;;;13.75;5.22;;;;;;;;;;5115753;28;20249;-67
2022/01/06 08:19:11;;;;;;;12.90;5.88;;;;;;;;;;5115779;28;20206;-66
2022/01/06 08:21:40;;;;;;;16.38;5.35;;;;;;;;;;5116112;28;20288;-66
2022/01/06 08:24:07;;;;;;;11.50;4.38;;;;;;;;;;5116040;28;20187;-67
2022/01/06 08:26:34;;;;;;;18.20;5.78;;;;;;;;;;5116013;28;20228;-67
2022/01/06 08:29:02;;;;;;;11.15;5.60;;;;;;;;;;5116379;28;20223;-66
2022/01/06 08:31:29;;;;;;;17.05;5.00;;;;;;;;;;5115651;28;20189;-66
2022/01/06 08:33:56;;;;;;;18.25;6.32;;;;;;;;;;5116447;28;20197;-66
2022/01/06 08:36:23;;;;;;;15.98;6.15;;;;;;;;;;5115335;28;20223;-66
2022/01/06 08:38:52;;;;;;;10.75;5.93;;;;;;;;;;5115827;28;20277;-66
2022/01/06 08:41:19;;;;;;;7.10;3.95;;;;;;;;;;5116100;28;20277;-67
2022/01/06 08:43:46;;;;;;;16.98;4.78;;;;;;;;;;5115379;28;20196;-67
2022/01/06 08:46:14;;;;;;;9.68;4.75;;;;;;;;;;5115313;28;20231;-66
2022/01/06 08:48:41;;;;;;;15.23;4.22;;;;;;;;;;5115336;28;20231;-67
2022/01/06 08:51:08;;;;;;;17.73;5.30;;;;;;;;;;5115230;28;20226;-66
2022/01/06 08:53:35;;;;;;;11.02;4.38;;;;;;;;;;5115784;28;20276;-66
2022/01/06 08:56:04;;;;;;;11.73;3.85;;;;;;;;;;5114978;28;20285;-67
2022/01/06 08:58:31;;;;;;;10.57;4.80;;;;;;;;;;5115510;28;20247;-66
2022/01/06 09:00:58;;;;;;;11.73;4.97;;;;;;;;;;5115262;28;20228;-67
2022/01/06 09:03:26;;;;;;;14.85;5.50;;;;;;;;;;5115759;28;20313;-66
2022/01/06 09:05:53;;;;;;;21.73;5.18;;;;;;;;;;5114900;28;20281;-66
2022/01/06 09:08:20;;;;;;;18.35;4.75;;;;;;;;;;5115370;28;20192;-67
2022/01/06 09:10:47;;;;;;;17.40;4.45;;;;;;;;;;5114769;28;20192;-66
2022/01/06 09:13:16;;;;;;;10.73;5.32;;;;;;;;;;5115149;28;20189;-66
2022/01/06 09:15:43;;;;;;;22.92;4.68;;;;;;;;;;5114754;28;20194;-66
2022/01/06 09:18:11;;;;;;;28.15;4.82;;;;;;;;;;5114524;28;20693;-67
2022/01/06 09:20:38;;;;;;;15.10;5.25;;;;;;;;;;5114561;28;20186;-67
2022/01/06 09:23:05;;;;;;;20.60;4.75;;;;;;;;;;5115021;28;20272;-66
2022/01/06 09:25:32;;;;;;;11.23;3.35;;;;;;;;;;5114886;28;20200;-66
2022/01/06 09:28:00;;;;;;;13.18;4.20;;;;;;;;;;5114781;28;20249;-66
2022/01/06 09:30:28;;;;;;;12.57;4.32;;;;;;;;;;5114424;28;20216;-66
2022/01/06 09:32:56;;;;;;;15.52;4.78;;;;;;;;;;5115127;28;20578;-67
2022/01/06 09:35:23;;;;;;;13.93;4.30;;;;;;;;;;5114239;28;20284;-68
2022/01/06 09:37:50;;;;;;;10.35;3.78;;;;;;;;;;5114760;28;20297;-67
2022/01/06 09:40:18;;;;;;;13.60;5.25;;;;;;;;;;5114529;28;20247;-66
2022/01/06 09:42:45;;;;;;;23.95;5.30;;;;;;;;;;5114758;28;20234;-69
2022/01/06 09:45:15;;;;;;;11.27;4.10;;;;;;;;;;5114311;28;20239;-67
2022/01/06 09:47:44;;;;;;;19.02;4.90;;;;;;;;;;5115373;28;20211;-67
2022/01/06 09:50:13;;;;;;;12.85;7.22;;;;;;;;;;5114186;28;20232;-67
2022/01/06 09:52:40;;;;;;;16.75;4.97;;;;;;;;;;5114526;28;20229;-66
2022/01/06 09:55:08;;;;;;;12.32;4.30;;;;;;;;;;5114622;28;20190;-67
2022/01/06 09:57:35;;;;;;;12.82;4.18;;;;;;;;;;5113875;28;20666;-66
2022/01/06 10:00:03;;;;;;;20.52;4.97;;;;;;;;;;5114499;28;20198;-66
2022/01/06 10:02:34;;;;;;;19.08;4.85;;;;;;;;;;5114965;28;20276;-67
2022/01/06 10:05:03;;;;;;;14.48;4.63;;;;;;;;;;5114104;28;20213;-67
2022/01/06 10:07:36;;;;;;;11.80;4.05;;;;;;;;;;5114030;28;20284;-66
2022/01/06 10:10:05;;;;;;;13.45;5.32;;;;;;;;;;5114470;28;20273;-67
2022/01/06 10:12:33;;;;;;;15.93;4.85;;;;;;;;;;5113809;28;20650;-67
2022/01/06 10:15:00;;;;;;;16.75;4.90;;;;;;;;;;5115080;28;20236;-67
2022/01/06 10:17:31;;;;;;;19.38;5.55;;;;;;;;;;5115794;28;20254;-66
2022/01/06 10:19:58;;;;;;;18.40;5.13;;;;;;;;;;5114723;28;20183;-67
2022/01/06 10:22:27;;;;;;;13.52;4.75;;;;;;;;;;5114173;28;20273;-67
2022/01/06 10:24:55;;;;;;;17.42;6.22;;;;;;;;;;5113706;28;20737;-66
2022/01/06 10:27:22;;;;;;;13.38;4.45;;;;;;;;;;5113644;28;20252;-66
2022/01/06 10:29:51;;;;;;;19.60;4.85;;;;;;;;;;5114000;28;20614;-66
2022/01/06 10:32:19;;;;;;;17.63;5.00;;;;;;;;;;5113773;28;20207;-67
2022/01/06 10:34:47;;;;;;;13.05;6.22;;;;;;;;;;5114324;28;20290;-67
2022/01/06 10:37:19;;;;;;;16.05;5.05;;;;;;;;;;5114376;28;20637;-66
2022/01/06 10:39:48;;;;;;;6.57;4.00;;;;;;;;;;5114280;28;20277;-67
2022/01/06 10:42:15;;;;;;;22.88;4.15;;;;;;;;;;5114078;28;20274;-67
2022/01/06 10:44:46;;;;;;;12.82;3.97;;;;;;;;;;5113820;28;20258;-66
2022/01/06 10:47:14;;;;;;;7.53;4.40;;;;;;;;;;5113790;28;20200;-66
2022/01/06 10:49:41;;;;;;;11.65;4.70;;;;;;;;;;5113890;28;20279;-66
2022/01/06 10:52:08;;;;;;;10.63;4.60;;;;;;;;;;5113856;28;20712;-66
2022/01/06 10:54:38;;;;;;;12.80;4.38;;;;;;;;;;5113460;28;20276;-66
2022/01/06 10:57:09;;;;;;;18.30;4.80;;;;;;;;;;5113308;28;20206;-66
2022/01/06 10:59:37;;;;;;;14.35;3.78;;;;;;;;;;5114301;28;20176;-66
2022/01/06 11:02:05;;;;;;;13.25;4.57;;;;;;;;;;5113606;28;20197;-66
2022/01/06 11:04:32;;;;;;;14.23;4.20;;;;;;;;;;5113572;28;20229;-66
2022/01/06 11:06:59;;;;;;;12.38;4.30;;;;;;;;;;5113303;28;20280;-67
2022/01/06 11:09:29;;;;;;;7.93;3.95;;;;;;;;;;5114114;28;20525;-66
2022/01/06 11:14:42;;;;;;;12.23;4.78;;;;;;;;;;5100123;28;20533;-65
2022/01/06 11:17:09;;;;;;;11.82;4.55;;;;;;;;;;5113788;28;20198;-66
2022/01/06 11:19:37;;;;;;;11.63;4.65;;;;;;;;;;5113181;28;20281;-66
2022/01/06 11:22:06;;;;;;;10.77;3.45;;;;;;;;;;5113301;28;20650;-66
2022/01/06 11:24:34;;;;;;;13.98;4.45;;;;;;;;;;5114876;28;20237;-66
2022/01/06 11:27:02;;;;;;;13.10;4.32;;;;;;;;;;5116911;28;20657;-66
2022/01/06 11:29:30;;;;;;;16.80;4.55;;;;;;;;;;5116961;28;20193;-66
2022/01/06 11:31:58;;;;;;;17.02;4.93;;;;;;;;;;5118077;28;20232;-66
2022/01/06 11:34:29;;;;;;;12.32;4.32;;;;;;;;;;5117773;28;20189;-67
2022/01/06 11:36:57;;;;;;;11.50;4.70;;;;;;;;;;5118072;28;20179;-66
2022/01/06 11:39:25;;;;;;;17.55;5.25;;;;;;;;;;5117320;28;20226;-67
2022/01/06 11:41:53;;;;;;;12.32;4.20;;;;;;;;;;5117294;28;20186;-66
2022/01/06 11:44:22;;;;;;;13.20;3.63;;;;;;;;;;5116708;28;20228;-68
2022/01/06 11:46:50;;;;;;;11.20;3.47;;;;;;;;;;5116629;28;20243;-66
2022/01/06 11:49:30;;;;;;;12.55;3.72;;;;;;;;;;5116756;28;20644;-66
2022/01/06 11:52:05;;;;;;;12.98;4.00;;;;;;;;;;5117206;28;20186;-66
2022/01/06 11:54:32;;;;;;;10.57;4.88;;;;;;;;;;5117578;28;20541;-67
2022/01/06 11:57:00;;;;;;;10.32;3.33;;;;;;;;;;5116075;28;20200;-67
2022/01/06 11:59:31;;;;;;;17.52;5.28;;;;;;;;;;5116451;28;20606;-67
2022/01/06 12:01:58;;;;;;;7.75;4.35;;;;;;;;;;5116335;28;20216;-67
2022/01/06 12:04:27;;;;;;;8.98;3.20;;;;;;;;;;5116491;28;20300;-67
2022/01/06 12:07:04;;;;;;;7.97;3.60;;;;;;;;;;5116359;28;20230;-67
2022/01/06 12:09:32;;;;;;;13.27;4.18;;;;;;;;;;5116765;28;20236;-66
2022/01/06 12:12:02;;;;;;;11.15;4.00;;;;;;;;;;5116215;28;20190;-67
2022/01/06 12:14:30;;;;;;;8.95;3.92;;;;;;;;;;5116251;28;20279;-67
2022/01/06 12:17:05;;;;;;;16.90;4.28;;;;;;;;;;5116337;28;20251;-66
2022/01/06 12:19:34;;;;;;;13.20;3.30;;;;;;;;;;5116198;28;20187;-67
2022/01/06 12:22:01;;;;;;;15.30;3.63;;;;;;;;;;5117772;28;20185;-66
2022/01/06 12:24:28;;;;;;;8.43;3.25;;;;;;;;;;5116205;28;20192;-66
2022/01/06 12:26:56;;;;;;;11.50;3.65;;;;;;;;;;5116117;28;20192;-66
2022/01/06 12:29:26;;;;;;;18.55;4.28;;;;;;;;;;5115944;28;20266;-68
2022/01/06 12:31:54;;;;;;;9.90;3.15;;;;;;;;;;5116195;28;20268;-66
2022/01/06 12:34:23;;;;;;;15.43;3.47;;;;;;;;;;5115865;28;20197;-66
2022/01/06 12:36:55;;;;;;;12.15;3.90;;;;;;;;;;5115437;28;20222;-66
2022/01/06 12:39:23;;;;;;;19.38;4.82;;;;;;;;;;5115433;28;20239;-66
2022/01/06 12:41:54;;;;;;;9.20;3.83;;;;;;;;;;5115851;28;20223;-66
2022/01/06 12:44:28;;;;;;;13.65;3.95;;;;;;;;;;5115893;28;20179;-66
2022/01/06 12:46:57;;;;;;;16.77;4.72;;;;;;;;;;5115635;28;20178;-66
2022/01/06 12:49:29;;;;;;;17.77;3.33;;;;;;;;;;5116125;28;20231;-66
2022/01/06 12:52:07;;;;;;;14.35;4.55;;;;;;;;;;5115733;28;20537;-65
2022/01/06 12:54:35;;;;;;;7.88;3.47;;;;;;;;;;5116504;28;20182;-67
2022/01/06 12:57:06;;;;;;;15.75;3.58;;;;;;;;;;5115846;28;20260;-66
2022/01/06 12:59:34;;;;;;;9.77;3.17;;;;;;;;;;5116687;28;20205;-67
2022/01/06 13:02:08;;;;;;;13.02;3.25;;;;;;;;;;5115182;28;20185;-66
2022/01/06 13:04:38;;;;;;;17.20;3.97;;;;;;;;;;5115227;28;20225;-66
2022/01/06 13:07:09;;;;;;;10.73;3.25;;;;;;;;;;5115177;28;20191;-67
2022/01/06 13:09:38;;;;;;;21.45;3.33;;;;;;;;;;5115420;28;20285;-66
2022/01/06 13:12:07;;;;;;;10.10;3.55;;;;;;;;;;5114453;28;20641;-68
2022/01/06 13:14:35;;;;;;;19.65;5.18;;;;;;;;;;5114940;28;20198;-68
2022/01/06 13:17:06;;;;;;;10.57;3.25;;;;;;;;;;5114520;28;20197;-68
2022/01/06 13:19:34;;;;;;;12.65;4.13;;;;;;;;;;5115164;28;20315;-67
2022/01/06 13:22:04;;;;;;;17.60;3.60;;;;;;;;;;5114546;28;20214;-67
2022/01/06 13:24:35;;;;;;;33.40;5.05;;;;;;;;;;5114566;28;20223;-68
2022/01/06 13:27:03;;;;;;;12.50;3.67;;;;;;;;;;5113722;28;20219;-67
2022/01/06 13:29:32;;;;;;;12.23;3.10;;;;;;;;;;5113811;28;20199;-67
2022/01/06 13:32:00;;;;;;;14.15;3.00;;;;;;;;;;5113699;28;20188;-67
2022/01/06 13:34:27;;;;;;;11.05;3.40;;;;;;;;;;5114358;28;20230;-68
2022/01/06 13:37:02;;;;;;;13.68;3.00;;;;;;;;;;5114149;28;20225;-67
2022/01/06 13:39:36;;;;;;;14.85;3.25;;;;;;;;;;5114098;28;20237;-68
2022/01/06 13:42:03;;;;;;;14.77;3.60;;;;;;;;;;5114128;28;20340;-68
2022/01/06 13:44:30;;;;;;;10.90;3.28;;;;;;;;;;5114195;28;20227;-67
2022/01/06 13:47:09;;;;;;;6.85;3.35;;;;;;;;;;5113965;28;20644;-68
2022/01/06 13:52:23;;;;;;;15.85;3.15;;;;;;;;;;5114361;28;20250;-67
2022/01/06 13:54:52;;;;;;;13.35;3.40;;;;;;;;;;5114551;28;20229;-67
2022/01/06 13:57:19;;;;;;;11.68;3.22;;;;;;;;;;5114026;28;20236;-67
2022/01/06 13:59:47;;;;;;;10.80;2.97;;;;;;;;;;5114779;28;20250;-67
2022/01/06 14:02:15;;;;;;;8.77;3.55;;;;;;;;;;5114131;28;20236;-67
2022/01/06 14:04:44;;;;;;;14.73;4.30;;;;;;;;;;5114014;28;20303;-67
2022/01/06 14:07:13;;;;;;;9.18;2.85;;;;;;;;;;5114148;28;20183;-67
2022/01/06 14:09:40;;;;;;;14.77;3.38;;;;;;;;;;5114066;28;20716;-67
2022/01/06 14:12:10;;;;;;;15.40;4.10;;;;;;;;;;5113611;28;20232;-68
2022/01/06 14:14:37;;;;;;;12.57;2.80;;;;;;;;;;5114359;28;20278;-68
2022/01/06 14:17:05;;;;;;;13.18;4.10;;;;;;;;;;5113285;28;20282;-67
2022/01/06 14:19:36;;;;;;;26.00;5.20;;;;;;;;;;5114292;28;20302;-67
2022/01/06 14:22:03;;;;;;;12.35;3.53;;;;;;;;;;5114467;28;20225;-70
2022/01/06 14:24:32;;;;;;;30.42;4.35;;;;;;;;;;5113607;28;20221;-68
2022/01/06 14:27:00;;;;;;;8.23;3.95;;;;;;;;;;5114251;28;20218;-68
2022/01/06 14:29:29;;;;;;;9.15;4.88;;;;;;;;;;5113191;28;20200;-68
2022/01/06 14:31:56;;;;;;;13.32;4.38;;;;;;;;;;5113654;28;20194;-67
2022/01/06 14:34:24;;;;;;;12.80;3.28;;;;;;;;;;5114129;28;20203;-67
2022/01/06 14:36:52;;;;;;;11.90;3.65;;;;;;;;;;5113632;28;20273;-67
2022/01/06 14:39:19;;;;;;;21.85;4.55;;;;;;;;;;5113579;28;20221;-66
2022/01/06 14:41:46;;;;;;;16.90;4.30;;;;;;;;;;5113777;28;20600;-66
2022/01/06 14:44:14;;;;;;;14.65;4.15;;;;;;;;;;5112937;28;20665;-69
2022/01/06 14:46:43;;;;;;;18.20;4.00;;;;;;;;;;5113553;28;20191;-68